sensor_id;sensor_type;location;lat;lon;timestamp;temperature;humidity
19110;DHT22;9687;50.836;12.060;2023-02-15T00:01:37;6.70;88.80
19110;DHT22;9687;50.836;12.060;2023-02-15T00:04:05;6.70;88.70
19110;DHT22;9687;50.836;12.060;2023-02-15T00:06:34;6.70;88.60
19110;DHT22;9687;50.836;12.060;2023-02-15T00:09:02;6.60;88.40
19110;DHT22;9687;50.836;12.060;2023-02-15T00:11:29;6.60;88.10
19110;DHT22;9687;50.836;12.060;2023-02-15T00:14:17;6.50;88.00
19110;DHT22;9687;50.836;12.060;2023-02-15T00:16:45;6.50;88.10
19110;DHT22;9687;50.836;12.060;2023-02-15T00:19:13;6.40;88.30
19110;DHT22;9687;50.836;12.060;2023-02-15T00:21:43;6.40;88.50
19110;DHT22;9687;50.836;12.060;2023-02-15T00:24:12;6.50;88.60
19110;DHT22;9687;50.836;12.060;2023-02-15T00:26:41;6.50;88.50
19110;DHT22;9687;50.836;12.060;2023-02-15T00:29:10;6.60;88.50
19110;DHT22;9687;50.836;12.060;2023-02-15T00:31:38;6.60;88.70
19110;DHT22;9687;50.836;12.060;2023-02-15T00:34:05;6.50;88.70
19110;DHT22;9687;50.836;12.060;2023-02-15T00:36:33;6.50;88.90
19110;DHT22;9687;50.836;12.060;2023-02-15T00:39:02;6.60;89.20
19110;DHT22;9687;50.836;12.060;2023-02-15T00:41:30;6.60;89.10
19110;DHT22;9687;50.836;12.060;2023-02-15T00:43:58;6.60;89.10
19110;DHT22;9687;50.836;12.060;2023-02-15T00:46:25;6.60;88.90
19110;DHT22;9687;50.836;12.060;2023-02-15T00:48:53;6.60;88.90
19110;DHT22;9687;50.836;12.060;2023-02-15T00:51:21;6.60;88.90
19110;DHT22;9687;50.836;12.060;2023-02-15T00:53:48;6.60;88.80
19110;DHT22;9687;50.836;12.060;2023-02-15T00:56:17;6.60;88.60
19110;DHT22;9687;50.836;12.060;2023-02-15T00:58:45;6.60;88.60
19110;DHT22;9687;50.836;12.060;2023-02-15T01:01:13;6.60;88.50
19110;DHT22;9687;50.836;12.060;2023-02-15T01:03:41;6.50;88.30
19110;DHT22;9687;50.836;12.060;2023-02-15T01:06:09;6.50;88.50
19110;DHT22;9687;50.836;12.060;2023-02-15T01:08:37;6.50;88.40
19110;DHT22;9687;50.836;12.060;2023-02-15T01:11:04;6.50;88.50
19110;DHT22;9687;50.836;12.060;2023-02-15T01:13:34;6.40;88.40
19110;DHT22;9687;50.836;12.060;2023-02-15T01:16:02;6.40;88.50
19110;DHT22;9687;50.836;12.060;2023-02-15T01:18:33;6.40;88.70
19110;DHT22;9687;50.836;12.060;2023-02-15T01:21:08;6.40;88.80
19110;DHT22;9687;50.836;12.060;2023-02-15T01:23:35;6.30;88.80
19110;DHT22;9687;50.836;12.060;2023-02-15T01:26:03;6.30;89.00
19110;DHT22;9687;50.836;12.060;2023-02-15T01:28:31;6.30;89.20
19110;DHT22;9687;50.836;12.060;2023-02-15T01:31:03;6.30;88.70
19110;DHT22;9687;50.836;12.060;2023-02-15T01:33:31;6.30;88.60
19110;DHT22;9687;50.836;12.060;2023-02-15T01:35:58;6.40;88.40
19110;DHT22;9687;50.836;12.060;2023-02-15T01:38:26;6.40;88.30
19110;DHT22;9687;50.836;12.060;2023-02-15T01:40:53;6.30;88.20
19110;DHT22;9687;50.836;12.060;2023-02-15T01:43:41;6.30;88.30
19110;DHT22;9687;50.836;12.060;2023-02-15T01:46:10;6.20;88.40
19110;DHT22;9687;50.836;12.060;2023-02-15T01:48:41;6.20;88.50
19110;DHT22;9687;50.836;12.060;2023-02-15T01:51:11;6.20;88.50
19110;DHT22;9687;50.836;12.060;2023-02-15T01:53:40;6.10;88.60
19110;DHT22;9687;50.836;12.060;2023-02-15T01:56:09;6.10;88.60
19110;DHT22;9687;50.836;12.060;2023-02-15T01:58:38;6.10;88.50
19110;DHT22;9687;50.836;12.060;2023-02-15T02:01:06;6.10;88.50
19110;DHT22;9687;50.836;12.060;2023-02-15T02:03:38;6.00;88.30
19110;DHT22;9687;50.836;12.060;2023-02-15T02:06:09;6.00;88.10
19110;DHT22;9687;50.836;12.060;2023-02-15T02:08:37;5.90;87.90
19110;DHT22;9687;50.836;12.060;2023-02-15T02:11:09;5.90;88.10
19110;DHT22;9687;50.836;12.060;2023-02-15T02:13:36;5.90;88.20
19110;DHT22;9687;50.836;12.060;2023-02-15T02:16:06;5.80;88.20
19110;DHT22;9687;50.836;12.060;2023-02-15T02:18:41;5.90;88.30
19110;DHT22;9687;50.836;12.060;2023-02-15T02:24:03;5.70;88.60
19110;DHT22;9687;50.836;12.060;2023-02-15T02:26:44;5.80;88.70
19110;DHT22;9687;50.836;12.060;2023-02-15T02:29:23;5.70;88.60
19110;DHT22;9687;50.836;12.060;2023-02-15T02:34:41;5.70;88.60
19110;DHT22;9687;50.836;12.060;2023-02-15T02:37:15;5.70;88.60
19110;DHT22;9687;50.836;12.060;2023-02-15T02:39:46;5.60;88.50
19110;DHT22;9687;50.836;12.060;2023-02-15T02:42:16;5.50;88.40
19110;DHT22;9687;50.836;12.060;2023-02-15T02:44:46;5.40;88.30
19110;DHT22;9687;50.836;12.060;2023-02-15T02:47:16;5.30;88.20
19110;DHT22;9687;50.836;12.060;2023-02-15T02:49:45;5.20;88.10
19110;DHT22;9687;50.836;12.060;2023-02-15T02:54:59;5.00;87.90
19110;DHT22;9687;50.836;12.060;2023-02-15T02:57:27;5.00;88.80
19110;DHT22;9687;50.836;12.060;2023-02-15T02:59:55;5.00;88.90
19110;DHT22;9687;50.836;12.060;2023-02-15T03:02:25;5.00;88.90
19110;DHT22;9687;50.836;12.060;2023-02-15T03:04:55;5.00;88.90
19110;DHT22;9687;50.836;12.060;2023-02-15T03:07:29;5.10;89.10
19110;DHT22;9687;50.836;12.060;2023-02-15T03:09:58;5.10;89.00
19110;DHT22;9687;50.836;12.060;2023-02-15T03:12:26;5.10;88.70
19110;DHT22;9687;50.836;12.060;2023-02-15T03:14:57;5.10;88.20
19110;DHT22;9687;50.836;12.060;2023-02-15T03:17:27;5.10;88.00
19110;DHT22;9687;50.836;12.060;2023-02-15T03:19:57;5.10;88.00
19110;DHT22;9687;50.836;12.060;2023-02-15T03:22:28;5.10;88.00
19110;DHT22;9687;50.836;12.060;2023-02-15T03:24:56;5.20;88.50
19110;DHT22;9687;50.836;12.060;2023-02-15T03:27:24;5.20;88.40
19110;DHT22;9687;50.836;12.060;2023-02-15T03:29:53;5.30;88.20
19110;DHT22;9687;50.836;12.060;2023-02-15T03:32:21;5.30;88.20
19110;DHT22;9687;50.836;12.060;2023-02-15T03:34:50;5.40;88.30
19110;DHT22;9687;50.836;12.060;2023-02-15T03:37:19;5.40;88.10
19110;DHT22;9687;50.836;12.060;2023-02-15T03:39:51;5.50;87.90
19110;DHT22;9687;50.836;12.060;2023-02-15T03:42:22;5.60;87.90
19110;DHT22;9687;50.836;12.060;2023-02-15T03:44:53;5.50;87.50
19110;DHT22;9687;50.836;12.060;2023-02-15T03:47:23;5.50;87.20
19110;DHT22;9687;50.836;12.060;2023-02-15T03:49:53;5.60;87.10
19110;DHT22;9687;50.836;12.060;2023-02-15T03:52:23;5.60;87.00
19110;DHT22;9687;50.836;12.060;2023-02-15T03:54:50;5.60;86.90
19110;DHT22;9687;50.836;12.060;2023-02-15T03:57:19;5.60;86.80
19110;DHT22;9687;50.836;12.060;2023-02-15T04:00:04;5.60;86.70
19110;DHT22;9687;50.836;12.060;2023-02-15T04:03:00;5.50;86.70
19110;DHT22;9687;50.836;12.060;2023-02-15T04:05:31;5.50;86.80
19110;DHT22;9687;50.836;12.060;2023-02-15T04:08:00;5.50;86.90
19110;DHT22;9687;50.836;12.060;2023-02-15T04:10:27;5.50;86.80
19110;DHT22;9687;50.836;12.060;2023-02-15T04:13:12;5.40;86.80
19110;DHT22;9687;50.836;12.060;2023-02-15T04:15:40;5.40;87.10
19110;DHT22;9687;50.836;12.060;2023-02-15T04:18:25;5.40;87.00
19110;DHT22;9687;50.836;12.060;2023-02-15T04:21:09;5.40;86.90
19110;DHT22;9687;50.836;12.060;2023-02-15T04:23:56;5.40;86.80
19110;DHT22;9687;50.836;12.060;2023-02-15T04:26:40;5.30;86.90
19110;DHT22;9687;50.836;12.060;2023-02-15T04:29:08;5.30;86.90
19110;DHT22;9687;50.836;12.060;2023-02-15T04:31:35;5.30;86.90
19110;DHT22;9687;50.836;12.060;2023-02-15T04:34:02;5.30;86.90
19110;DHT22;9687;50.836;12.060;2023-02-15T04:36:30;5.30;86.80
19110;DHT22;9687;50.836;12.060;2023-02-15T04:38:59;5.30;86.80
19110;DHT22;9687;50.836;12.060;2023-02-15T04:41:26;5.30;86.70
19110;DHT22;9687;50.836;12.060;2023-02-15T04:43:53;5.30;86.70
19110;DHT22;9687;50.836;12.060;2023-02-15T04:46:20;5.30;86.60
19110;DHT22;9687;50.836;12.060;2023-02-15T04:48:47;5.30;86.70
19110;DHT22;9687;50.836;12.060;2023-02-15T04:51:15;5.20;86.70
19110;DHT22;9687;50.836;12.060;2023-02-15T04:53:43;5.20;86.70
19110;DHT22;9687;50.836;12.060;2023-02-15T04:56:11;5.20;86.60
19110;DHT22;9687;50.836;12.060;2023-02-15T04:58:39;5.20;86.50
19110;DHT22;9687;50.836;12.060;2023-02-15T05:01:06;5.20;86.10
19110;DHT22;9687;50.836;12.060;2023-02-15T05:03:34;5.20;86.20
19110;DHT22;9687;50.836;12.060;2023-02-15T05:06:01;5.10;86.10
19110;DHT22;9687;50.836;12.060;2023-02-15T05:08:28;5.10;86.00
19110;DHT22;9687;50.836;12.060;2023-02-15T05:10:56;5.10;86.10
19110;DHT22;9687;50.836;12.060;2023-02-15T05:13:24;5.10;85.90
19110;DHT22;9687;50.836;12.060;2023-02-15T05:15:52;5.00;85.70
19110;DHT22;9687;50.836;12.060;2023-02-15T05:18:20;5.00;85.60
19110;DHT22;9687;50.836;12.060;2023-02-15T05:20:47;4.90;85.60
19110;DHT22;9687;50.836;12.060;2023-02-15T05:23:15;4.80;85.50
19110;DHT22;9687;50.836;12.060;2023-02-15T05:25:45;4.70;85.60
19110;DHT22;9687;50.836;12.060;2023-02-15T05:28:32;4.50;85.60
19110;DHT22;9687;50.836;12.060;2023-02-15T05:31:02;4.40;85.90
19110;DHT22;9687;50.836;12.060;2023-02-15T05:33:30;4.30;86.10
19110;DHT22;9687;50.836;12.060;2023-02-15T05:35:57;4.30;86.20
19110;DHT22;9687;50.836;12.060;2023-02-15T05:38:24;4.20;86.20
19110;DHT22;9687;50.836;12.060;2023-02-15T05:40:52;4.20;86.40
19110;DHT22;9687;50.836;12.060;2023-02-15T05:43:21;4.10;86.40
19110;DHT22;9687;50.836;12.060;2023-02-15T05:45:53;4.20;86.70
19110;DHT22;9687;50.836;12.060;2023-02-15T05:48:23;4.10;86.90
19110;DHT22;9687;50.836;12.060;2023-02-15T05:50:56;4.10;87.00
19110;DHT22;9687;50.836;12.060;2023-02-15T05:53:23;4.00;86.90
19110;DHT22;9687;50.836;12.060;2023-02-15T05:55:51;4.00;86.90
19110;DHT22;9687;50.836;12.060;2023-02-15T05:58:19;4.00;86.90
19110;DHT22;9687;50.836;12.060;2023-02-15T06:00:46;4.10;87.20
19110;DHT22;9687;50.836;12.060;2023-02-15T06:03:15;4.10;87.10
19110;DHT22;9687;50.836;12.060;2023-02-15T06:05:42;4.10;87.00
19110;DHT22;9687;50.836;12.060;2023-02-15T06:08:09;4.20;87.10
19110;DHT22;9687;50.836;12.060;2023-02-15T06:10:37;4.20;87.10
19110;DHT22;9687;50.836;12.060;2023-02-15T06:13:06;4.20;86.90
19110;DHT22;9687;50.836;12.060;2023-02-15T06:15:33;4.30;86.90
19110;DHT22;9687;50.836;12.060;2023-02-15T06:18:01;4.30;86.70
19110;DHT22;9687;50.836;12.060;2023-02-15T06:20:30;4.30;86.70
19110;DHT22;9687;50.836;12.060;2023-02-15T06:22:58;4.30;86.50
19110;DHT22;9687;50.836;12.060;2023-02-15T06:25:25;4.30;86.50
19110;DHT22;9687;50.836;12.060;2023-02-15T06:27:53;4.30;86.50
19110;DHT22;9687;50.836;12.060;2023-02-15T06:30:20;4.20;86.30
19110;DHT22;9687;50.836;12.060;2023-02-15T06:32:47;4.20;86.30
19110;DHT22;9687;50.836;12.060;2023-02-15T06:35:15;4.20;86.40
19110;DHT22;9687;50.836;12.060;2023-02-15T06:37:44;4.10;86.40
19110;DHT22;9687;50.836;12.060;2023-02-15T06:40:12;4.10;85.90
19110;DHT22;9687;50.836;12.060;2023-02-15T06:42:39;4.10;86.80
19110;DHT22;9687;50.836;12.060;2023-02-15T06:45:08;4.10;86.70
19110;DHT22;9687;50.836;12.060;2023-02-15T06:47:35;4.10;86.90
19110;DHT22;9687;50.836;12.060;2023-02-15T06:50:03;4.10;87.00
19110;DHT22;9687;50.836;12.060;2023-02-15T06:52:31;4.10;87.00
19110;DHT22;9687;50.836;12.060;2023-02-15T06:54:59;4.10;87.00
19110;DHT22;9687;50.836;12.060;2023-02-15T06:57:27;4.10;87.00
19110;DHT22;9687;50.836;12.060;2023-02-15T06:59:54;4.10;87.00
19110;DHT22;9687;50.836;12.060;2023-02-15T07:02:23;4.20;86.50
19110;DHT22;9687;50.836;12.060;2023-02-15T07:04:50;4.20;87.10
19110;DHT22;9687;50.836;12.060;2023-02-15T07:07:17;4.20;87.10
19110;DHT22;9687;50.836;12.060;2023-02-15T07:09:44;4.30;87.20
19110;DHT22;9687;50.836;12.060;2023-02-15T07:12:13;4.40;87.30
19110;DHT22;9687;50.836;12.060;2023-02-15T07:14:58;4.40;87.30
19110;DHT22;9687;50.836;12.060;2023-02-15T07:17:25;4.40;86.90
19110;DHT22;9687;50.836;12.060;2023-02-15T07:19:54;4.50;87.00
19110;DHT22;9687;50.836;12.060;2023-02-15T07:22:21;4.60;87.30
19110;DHT22;9687;50.836;12.060;2023-02-15T07:24:49;4.70;87.10
19110;DHT22;9687;50.836;12.060;2023-02-15T07:27:22;4.80;87.10
19110;DHT22;9687;50.836;12.060;2023-02-15T07:29:49;4.90;86.80
19110;DHT22;9687;50.836;12.060;2023-02-15T07:32:17;5.00;86.20
19110;DHT22;9687;50.836;12.060;2023-02-15T07:34:44;5.10;86.40
19110;DHT22;9687;50.836;12.060;2023-02-15T07:37:11;5.30;86.40
19110;DHT22;9687;50.836;12.060;2023-02-15T07:39:39;5.40;85.70
19110;DHT22;9687;50.836;12.060;2023-02-15T07:42:06;5.50;84.80
19110;DHT22;9687;50.836;12.060;2023-02-15T07:44:34;5.40;84.70
19110;DHT22;9687;50.836;12.060;2023-02-15T07:47:02;5.50;84.70
19110;DHT22;9687;50.836;12.060;2023-02-15T07:49:29;5.60;84.90
19110;DHT22;9687;50.836;12.060;2023-02-15T07:51:57;5.60;84.80
19110;DHT22;9687;50.836;12.060;2023-02-15T07:54:24;5.60;84.60
19110;DHT22;9687;50.836;12.060;2023-02-15T07:56:51;5.70;84.70
19110;DHT22;9687;50.836;12.060;2023-02-15T07:59:18;5.80;84.50
19110;DHT22;9687;50.836;12.060;2023-02-15T08:01:47;5.90;84.20
19110;DHT22;9687;50.836;12.060;2023-02-15T08:04:22;6.00;83.90
19110;DHT22;9687;50.836;12.060;2023-02-15T08:06:51;6.10;83.60
19110;DHT22;9687;50.836;12.060;2023-02-15T08:09:20;6.10;83.60
19110;DHT22;9687;50.836;12.060;2023-02-15T08:11:47;6.20;83.70
19110;DHT22;9687;50.836;12.060;2023-02-15T08:14:15;6.30;83.20
19110;DHT22;9687;50.836;12.060;2023-02-15T08:16:44;6.40;83.10
19110;DHT22;9687;50.836;12.060;2023-02-15T08:19:14;6.50;82.20
19110;DHT22;9687;50.836;12.060;2023-02-15T08:21:44;6.60;82.30
19110;DHT22;9687;50.836;12.060;2023-02-15T08:24:16;6.70;82.40
19110;DHT22;9687;50.836;12.060;2023-02-15T08:26:43;6.90;82.00
19110;DHT22;9687;50.836;12.060;2023-02-15T08:29:12;7.10;82.10
19110;DHT22;9687;50.836;12.060;2023-02-15T08:31:40;7.20;82.00
19110;DHT22;9687;50.836;12.060;2023-02-15T08:34:08;7.50;81.40
19110;DHT22;9687;50.836;12.060;2023-02-15T08:36:39;7.60;80.50
19110;DHT22;9687;50.836;12.060;2023-02-15T08:39:07;7.80;80.40
19110;DHT22;9687;50.836;12.060;2023-02-15T08:41:36;8.00;80.10
19110;DHT22;9687;50.836;12.060;2023-02-15T08:44:04;8.20;80.00
19110;DHT22;9687;50.836;12.060;2023-02-15T08:46:33;8.30;79.60
19110;DHT22;9687;50.836;12.060;2023-02-15T08:49:00;8.60;79.80
19110;DHT22;9687;50.836;12.060;2023-02-15T08:51:29;8.80;78.40
19110;DHT22;9687;50.836;12.060;2023-02-15T08:53:58;9.00;78.20
19110;DHT22;9687;50.836;12.060;2023-02-15T08:56:26;9.20;77.60
19110;DHT22;9687;50.836;12.060;2023-02-15T08:58:54;9.40;77.60
19110;DHT22;9687;50.836;12.060;2023-02-15T09:01:23;9.70;77.30
19110;DHT22;9687;50.836;12.060;2023-02-15T09:03:51;9.80;76.10
19110;DHT22;9687;50.836;12.060;2023-02-15T09:06:20;9.90;74.90
19110;DHT22;9687;50.836;12.060;2023-02-15T09:08:48;10.00;73.80
19110;DHT22;9687;50.836;12.060;2023-02-15T09:11:18;10.20;73.70
19110;DHT22;9687;50.836;12.060;2023-02-15T09:13:51;10.20;73.00
19110;DHT22;9687;50.836;12.060;2023-02-15T09:16:19;10.30;72.80
19110;DHT22;9687;50.836;12.060;2023-02-15T09:18:46;10.50;72.50
19110;DHT22;9687;50.836;12.060;2023-02-15T09:21:16;10.50;71.10
19110;DHT22;9687;50.836;12.060;2023-02-15T09:23:44;10.50;70.90
19110;DHT22;9687;50.836;12.060;2023-02-15T09:26:15;10.60;70.50
19110;DHT22;9687;50.836;12.060;2023-02-15T09:28:44;10.60;70.40
19110;DHT22;9687;50.836;12.060;2023-02-15T09:31:13;10.70;70.50
19110;DHT22;9687;50.836;12.060;2023-02-15T09:33:42;10.80;70.60
19110;DHT22;9687;50.836;12.060;2023-02-15T09:36:15;10.90;71.40
19110;DHT22;9687;50.836;12.060;2023-02-15T09:38:43;11.10;70.90
19110;DHT22;9687;50.836;12.060;2023-02-15T09:41:20;11.20;70.40
19110;DHT22;9687;50.836;12.060;2023-02-15T09:43:57;11.40;71.00
19110;DHT22;9687;50.836;12.060;2023-02-15T09:46:38;11.50;70.70
19110;DHT22;9687;50.836;12.060;2023-02-15T09:49:17;11.70;70.30
19110;DHT22;9687;50.836;12.060;2023-02-15T09:51:55;11.90;70.40
19110;DHT22;9687;50.836;12.060;2023-02-15T09:54:33;12.10;69.60
19110;DHT22;9687;50.836;12.060;2023-02-15T09:57:06;12.40;69.00
19110;DHT22;9687;50.836;12.060;2023-02-15T09:59:38;12.50;68.70
19110;DHT22;9687;50.836;12.060;2023-02-15T10:02:20;12.70;68.20
19110;DHT22;9687;50.836;12.060;2023-02-15T10:05:07;12.90;68.00
19110;DHT22;9687;50.836;12.060;2023-02-15T10:07:43;13.10;68.00
19110;DHT22;9687;50.836;12.060;2023-02-15T10:10:18;13.20;66.80
19110;DHT22;9687;50.836;12.060;2023-02-15T10:12:57;13.40;66.80
19110;DHT22;9687;50.836;12.060;2023-02-15T10:15:41;13.50;66.40
19110;DHT22;9687;50.836;12.060;2023-02-15T10:21:05;13.70;65.10
19110;DHT22;9687;50.836;12.060;2023-02-15T10:23:42;13.80;63.80
19110;DHT22;9687;50.836;12.060;2023-02-15T10:26:11;13.90;63.70
19110;DHT22;9687;50.836;12.060;2023-02-15T10:28:42;14.00;64.10
19110;DHT22;9687;50.836;12.060;2023-02-15T10:31:14;14.10;63.50
19110;DHT22;9687;50.836;12.060;2023-02-15T10:33:47;14.20;63.30
19110;DHT22;9687;50.836;12.060;2023-02-15T10:36:18;14.30;62.80
19110;DHT22;9687;50.836;12.060;2023-02-15T10:38:52;14.40;61.80
19110;DHT22;9687;50.836;12.060;2023-02-15T10:41:25;14.40;61.40
19110;DHT22;9687;50.836;12.060;2023-02-15T10:43:57;14.50;60.30
19110;DHT22;9687;50.836;12.060;2023-02-15T10:46:32;14.50;60.60
19110;DHT22;9687;50.836;12.060;2023-02-15T10:49:06;14.50;60.60
19110;DHT22;9687;50.836;12.060;2023-02-15T10:51:39;14.60;60.10
19110;DHT22;9687;50.836;12.060;2023-02-15T10:54:13;14.70;60.10
19110;DHT22;9687;50.836;12.060;2023-02-15T10:56:45;14.80;59.30
19110;DHT22;9687;50.836;12.060;2023-02-15T10:59:19;14.80;59.20
19110;DHT22;9687;50.836;12.060;2023-02-15T11:01:53;14.90;59.40
19110;DHT22;9687;50.836;12.060;2023-02-15T11:07:05;15.10;59.00
19110;DHT22;9687;50.836;12.060;2023-02-15T11:09:36;15.10;58.40
19110;DHT22;9687;50.836;12.060;2023-02-15T11:12:04;15.20;59.00
19110;DHT22;9687;50.836;12.060;2023-02-15T11:14:37;15.20;58.40
19110;DHT22;9687;50.836;12.060;2023-02-15T11:17:06;15.20;58.10
19110;DHT22;9687;50.836;12.060;2023-02-15T11:19:37;15.40;57.90
19110;DHT22;9687;50.836;12.060;2023-02-15T11:22:09;15.40;57.10
19110;DHT22;9687;50.836;12.060;2023-02-15T11:24:39;15.50;56.80
19110;DHT22;9687;50.836;12.060;2023-02-15T11:27:15;15.50;56.60
19110;DHT22;9687;50.836;12.060;2023-02-15T11:29:50;15.60;56.00
19110;DHT22;9687;50.836;12.060;2023-02-15T11:32:21;15.60;55.60
19110;DHT22;9687;50.836;12.060;2023-02-15T11:34:54;15.60;56.00
19110;DHT22;9687;50.836;12.060;2023-02-15T11:37:28;15.60;55.00
19110;DHT22;9687;50.836;12.060;2023-02-15T11:39:57;15.60;55.70
19110;DHT22;9687;50.836;12.060;2023-02-15T11:42:27;15.60;55.80
19110;DHT22;9687;50.836;12.060;2023-02-15T11:44:58;15.70;56.10
19110;DHT22;9687;50.836;12.060;2023-02-15T11:47:27;15.80;56.20
19110;DHT22;9687;50.836;12.060;2023-02-15T11:49:56;15.90;55.90
19110;DHT22;9687;50.836;12.060;2023-02-15T11:52:23;15.90;55.70
19110;DHT22;9687;50.836;12.060;2023-02-15T11:54:51;16.00;55.60
19110;DHT22;9687;50.836;12.060;2023-02-15T11:57:21;16.10;56.00
19110;DHT22;9687;50.836;12.060;2023-02-15T11:59:50;16.10;56.00
19110;DHT22;9687;50.836;12.060;2023-02-15T12:02:20;16.20;55.40
19110;DHT22;9687;50.836;12.060;2023-02-15T12:04:56;16.20;55.60
19110;DHT22;9687;50.836;12.060;2023-02-15T12:07:27;16.20;55.30
19110;DHT22;9687;50.836;12.060;2023-02-15T12:09:59;16.30;55.40
19110;DHT22;9687;50.836;12.060;2023-02-15T12:12:28;16.30;55.80
19110;DHT22;9687;50.836;12.060;2023-02-15T12:14:57;16.30;54.80
19110;DHT22;9687;50.836;12.060;2023-02-15T12:17:26;16.30;54.80
19110;DHT22;9687;50.836;12.060;2023-02-15T12:19:57;16.30;54.20
19110;DHT22;9687;50.836;12.060;2023-02-15T12:22:29;16.30;54.20
19110;DHT22;9687;50.836;12.060;2023-02-15T12:25:00;16.30;53.80
19110;DHT22;9687;50.836;12.060;2023-02-15T12:27:28;16.30;53.70
19110;DHT22;9687;50.836;12.060;2023-02-15T12:29:56;16.30;53.30
19110;DHT22;9687;50.836;12.060;2023-02-15T12:32:25;16.20;53.60
19110;DHT22;9687;50.836;12.060;2023-02-15T12:35:06;16.20;54.00
19110;DHT22;9687;50.836;12.060;2023-02-15T12:37:36;16.20;53.80
19110;DHT22;9687;50.836;12.060;2023-02-15T12:40:18;16.20;53.50
19110;DHT22;9687;50.836;12.060;2023-02-15T12:42:46;16.20;53.00
19110;DHT22;9687;50.836;12.060;2023-02-15T12:45:21;16.10;52.90
19110;DHT22;9687;50.836;12.060;2023-02-15T12:48:07;16.10;52.90
19110;DHT22;9687;50.836;12.060;2023-02-15T12:50:37;16.00;52.40
19110;DHT22;9687;50.836;12.060;2023-02-15T12:53:08;16.00;53.30
19110;DHT22;9687;50.836;12.060;2023-02-15T12:55:47;16.00;52.90
19110;DHT22;9687;50.836;12.060;2023-02-15T12:58:17;15.90;52.70
19110;DHT22;9687;50.836;12.060;2023-02-15T13:00:46;15.90;52.60
19110;DHT22;9687;50.836;12.060;2023-02-15T13:03:17;15.80;52.70
19110;DHT22;9687;50.836;12.060;2023-02-15T13:05:47;15.80;52.70
19110;DHT22;9687;50.836;12.060;2023-02-15T13:08:18;15.80;52.40
19110;DHT22;9687;50.836;12.060;2023-02-15T13:10:52;15.70;52.50
19110;DHT22;9687;50.836;12.060;2023-02-15T13:13:20;15.60;52.50
19110;DHT22;9687;50.836;12.060;2023-02-15T13:15:49;15.50;52.30
19110;DHT22;9687;50.836;12.060;2023-02-15T13:18:19;15.50;52.20
19110;DHT22;9687;50.836;12.060;2023-02-15T13:20:51;15.40;52.30
19110;DHT22;9687;50.836;12.060;2023-02-15T13:23:24;15.40;52.30
19110;DHT22;9687;50.836;12.060;2023-02-15T13:25:53;15.30;52.20
19110;DHT22;9687;50.836;12.060;2023-02-15T13:28:22;15.20;52.40
19110;DHT22;9687;50.836;12.060;2023-02-15T13:30:52;15.20;52.30
19110;DHT22;9687;50.836;12.060;2023-02-15T13:33:21;15.10;52.40
19110;DHT22;9687;50.836;12.060;2023-02-15T13:35:57;15.00;52.40
19110;DHT22;9687;50.836;12.060;2023-02-15T13:41:14;14.80;52.10
19110;DHT22;9687;50.836;12.060;2023-02-15T13:43:56;14.80;52.40
19110;DHT22;9687;50.836;12.060;2023-02-15T13:46:30;14.70;52.70
19110;DHT22;9687;50.836;12.060;2023-02-15T13:49:05;14.60;52.60
19110;DHT22;9687;50.836;12.060;2023-02-15T13:51:39;14.60;52.90
19110;DHT22;9687;50.836;12.060;2023-02-15T13:54:13;14.50;53.10
19110;DHT22;9687;50.836;12.060;2023-02-15T13:56:49;14.50;52.70
19110;DHT22;9687;50.836;12.060;2023-02-15T13:59:25;14.50;53.00
19110;DHT22;9687;50.836;12.060;2023-02-15T14:01:57;14.50;53.30
19110;DHT22;9687;50.836;12.060;2023-02-15T14:07:23;14.40;53.30
19110;DHT22;9687;50.836;12.060;2023-02-15T14:09:58;14.40;53.30
19110;DHT22;9687;50.836;12.060;2023-02-15T14:12:37;14.30;52.70
19110;DHT22;9687;50.836;12.060;2023-02-15T14:15:13;14.30;52.60
19110;DHT22;9687;50.836;12.060;2023-02-15T14:17:50;14.30;52.70
19110;DHT22;9687;50.836;12.060;2023-02-15T14:20:21;14.30;53.20
19110;DHT22;9687;50.836;12.060;2023-02-15T14:23:03;14.30;53.00
19110;DHT22;9687;50.836;12.060;2023-02-15T14:25:35;14.20;53.10
19110;DHT22;9687;50.836;12.060;2023-02-15T14:28:07;14.30;53.20
19110;DHT22;9687;50.836;12.060;2023-02-15T14:30:37;14.30;53.20
19110;DHT22;9687;50.836;12.060;2023-02-15T14:33:07;14.30;53.20
19110;DHT22;9687;50.836;12.060;2023-02-15T14:35:34;14.30;53.20
19110;DHT22;9687;50.836;12.060;2023-02-15T14:38:09;14.30;53.20
19110;DHT22;9687;50.836;12.060;2023-02-15T14:40:43;14.30;52.90
19110;DHT22;9687;50.836;12.060;2023-02-15T14:46:19;14.20;53.10
19110;DHT22;9687;50.836;12.060;2023-02-15T14:48:50;14.30;53.20
19110;DHT22;9687;50.836;12.060;2023-02-15T14:54:08;14.30;53.20
19110;DHT22;9687;50.836;12.060;2023-02-15T14:56:37;14.30;52.90
19110;DHT22;9687;50.836;12.060;2023-02-15T14:59:14;14.30;53.20
19110;DHT22;9687;50.836;12.060;2023-02-15T15:01:51;14.30;53.10
19110;DHT22;9687;50.836;12.060;2023-02-15T15:04:24;14.30;53.20
19110;DHT22;9687;50.836;12.060;2023-02-15T15:06:57;14.30;52.90
19110;DHT22;9687;50.836;12.060;2023-02-15T15:09:29;14.20;53.00
19110;DHT22;9687;50.836;12.060;2023-02-15T15:14:42;14.20;53.10
19110;DHT22;9687;50.836;12.060;2023-02-15T15:17:12;14.20;53.10
19110;DHT22;9687;50.836;12.060;2023-02-15T15:22:25;14.20;53.10
19110;DHT22;9687;50.836;12.060;2023-02-15T15:24:54;14.20;53.10
19110;DHT22;9687;50.836;12.060;2023-02-15T15:27:42;14.20;53.10
19110;DHT22;9687;50.836;12.060;2023-02-15T15:32:57;14.20;53.30
19110;DHT22;9687;50.836;12.060;2023-02-15T15:35:27;14.10;53.00
19110;DHT22;9687;50.836;12.060;2023-02-15T15:38:11;14.10;53.00
19110;DHT22;9687;50.836;12.060;2023-02-15T15:41:01;14.10;53.00
19110;DHT22;9687;50.836;12.060;2023-02-15T15:43:52;14.10;53.00
19110;DHT22;9687;50.836;12.060;2023-02-15T15:46:32;14.10;53.00
19110;DHT22;9687;50.836;12.060;2023-02-15T15:49:05;14.00;52.90
19110;DHT22;9687;50.836;12.060;2023-02-15T15:51:34;13.90;52.80
19110;DHT22;9687;50.836;12.060;2023-02-15T15:54:06;13.90;52.80
19110;DHT22;9687;50.836;12.060;2023-02-15T15:56:34;13.90;53.00
19110;DHT22;9687;50.836;12.060;2023-02-15T15:59:04;13.80;53.20
19110;DHT22;9687;50.836;12.060;2023-02-15T16:01:34;13.80;53.30
19110;DHT22;9687;50.836;12.060;2023-02-15T16:04:02;13.80;53.30
19110;DHT22;9687;50.836;12.060;2023-02-15T16:06:32;13.70;53.20
19110;DHT22;9687;50.836;12.060;2023-02-15T16:09:10;13.70;53.00
19110;DHT22;9687;50.836;12.060;2023-02-15T16:11:39;13.60;53.10
19110;DHT22;9687;50.836;12.060;2023-02-15T16:14:13;13.60;53.20
19110;DHT22;9687;50.836;12.060;2023-02-15T16:16:45;13.60;53.30
19110;DHT22;9687;50.836;12.060;2023-02-15T16:19:17;13.60;53.50
19110;DHT22;9687;50.836;12.060;2023-02-15T16:21:46;13.50;53.50
19110;DHT22;9687;50.836;12.060;2023-02-15T16:24:22;13.50;53.50
19110;DHT22;9687;50.836;12.060;2023-02-15T16:26:56;13.40;53.50
19110;DHT22;9687;50.836;12.060;2023-02-15T16:29:27;13.40;53.50
19110;DHT22;9687;50.836;12.060;2023-02-15T16:31:57;13.40;53.60
19110;DHT22;9687;50.836;12.060;2023-02-15T16:34:26;13.30;53.60
19110;DHT22;9687;50.836;12.060;2023-02-15T16:37:14;13.30;53.70